createdAt,value
2023-05-06T00:00:26.025Z,14.4673
2023-05-06T00:01:26.286Z,14.4784
2023-05-06T00:02:26.655Z,14.5001
2023-05-06T00:03:27.019Z,14.4762
2023-05-06T00:04:27.483Z,14.4844
2023-05-06T00:05:27.777Z,14.4631
2023-05-06T00:06:28.072Z,14.4060
2023-05-06T00:07:28.393Z,14.4727
2023-05-06T00:08:28.679Z,14.4272
2023-05-06T00:09:29.039Z,14.4025
2023-05-06T00:10:29.407Z,14.4157
2023-05-06T00:11:29.712Z,14.3548
2023-05-06T00:12:30.025Z,14.3431
2023-05-06T00:13:30.381Z,14.3530
2023-05-06T00:14:30.711Z,14.4205
2023-05-06T00:15:32.190Z,14.4235
2023-05-06T00:16:32.911Z,14.3844
2023-05-06T00:17:33.501Z,14.4343
2023-05-06T00:18:33.958Z,14.4390
2023-05-06T00:19:34.277Z,14.4727
2023-05-06T00:20:34.565Z,14.4200
2023-05-06T00:21:34.884Z,14.4241
2023-05-06T00:22:35.251Z,14.4188
2023-05-06T00:23:35.607Z,14.4425
2023-05-06T00:24:35.981Z,14.4893
2023-05-06T00:25:36.377Z,14.5337
2023-05-06T00:26:36.701Z,14.6249
2023-05-06T00:27:37.016Z,14.6494
2023-05-06T00:28:37.330Z,14.6691
2023-05-06T00:29:37.646Z,14.7078
2023-05-06T00:30:37.999Z,14.7168
2023-05-06T00:31:38.342Z,14.7322
2023-05-06T00:32:38.766Z,14.7037
2023-05-06T00:33:39.006Z,14.6515
2023-05-06T00:34:39.326Z,14.6122
2023-05-06T00:35:39.623Z,14.5317
2023-05-06T00:36:39.913Z,14.4259
2023-05-06T00:37:40.191Z,14.3847
2023-05-06T00:38:40.587Z,14.3090
2023-05-06T00:39:40.885Z,14.3661
2023-05-06T00:40:41.316Z,14.3702
2023-05-06T00:41:41.594Z,14.3999
2023-05-06T00:42:41.979Z,14.4541
2023-05-06T00:43:42.290Z,14.4413
2023-05-06T00:44:42.570Z,14.3997
2023-05-06T00:45:42.838Z,14.4546
2023-05-06T00:46:43.104Z,14.4671
2023-05-06T00:47:43.463Z,14.4996
2023-05-06T00:48:43.799Z,14.5289
2023-05-06T00:49:44.121Z,14.5378
2023-05-06T00:50:44.389Z,14.5284
2023-05-06T00:51:44.735Z,14.5158
2023-05-06T00:52:45.072Z,14.5223
2023-05-06T00:53:45.402Z,14.5073
2023-05-06T00:54:45.829Z,14.5215
2023-05-06T00:55:46.171Z,14.5234
2023-05-06T00:56:46.462Z,14.5825
2023-05-06T00:57:46.830Z,14.6389
2023-05-06T00:58:47.152Z,14.6657
2023-05-06T00:59:47.512Z,14.6454
2023-05-06T01:00:47.900Z,14.6635
2023-05-06T01:01:48.217Z,14.6614
2023-05-06T01:02:48.596Z,14.6616
2023-05-06T01:03:49.087Z,14.5529
2023-05-06T01:04:49.590Z,14.5427
2023-05-06T01:05:49.890Z,14.5680
2023-05-06T01:06:50.214Z,14.5331
2023-05-06T01:07:50.564Z,14.5543
2023-05-06T01:08:50.862Z,14.5452
2023-05-06T01:09:51.182Z,14.5529
2023-05-06T01:10:51.536Z,14.5530
2023-05-06T01:11:51.833Z,14.5215
2023-05-06T01:12:52.199Z,14.4507
2023-05-06T01:13:52.450Z,14.3978
2023-05-06T01:14:52.761Z,14.3581
2023-05-06T01:15:53.088Z,14.3398
2023-05-06T01:16:53.413Z,14.3051
2023-05-06T01:17:53.811Z,14.3219
2023-05-06T01:18:54.105Z,14.3023
2023-05-06T01:19:54.436Z,14.2250
2023-05-06T01:20:54.784Z,14.2549
2023-05-06T01:21:55.108Z,14.1679
2023-05-06T01:22:55.394Z,14.2098
2023-05-06T01:23:55.747Z,14.2093
2023-05-06T01:24:55.993Z,14.2083
2023-05-06T01:25:56.292Z,14.2215
2023-05-06T01:26:56.621Z,14.3011
2023-05-06T01:27:56.951Z,14.3201
2023-05-06T01:28:57.251Z,14.2810
2023-05-06T01:29:57.565Z,14.2247
2023-05-06T01:30:57.963Z,14.2728
2023-05-06T01:31:58.308Z,14.2957
2023-05-06T01:32:58.636Z,14.3314
2023-05-06T01:33:59.062Z,14.3589
2023-05-06T01:34:59.345Z,14.3992
2023-05-06T01:35:59.649Z,14.3842
2023-05-06T01:36:59.923Z,14.3979
2023-05-06T01:38:00.228Z,14.4202
2023-05-06T01:39:00.490Z,14.3498
2023-05-06T01:40:00.791Z,14.3818
2023-05-06T01:41:01.070Z,14.3456
2023-05-06T01:42:01.454Z,14.2260
2023-05-06T01:43:01.772Z,14.1843
2023-05-06T01:44:02.082Z,14.1412
2023-05-06T01:45:02.364Z,14.0370
2023-05-06T01:46:02.694Z,13.9765
2023-05-06T01:47:03.018Z,14.0318
2023-05-06T01:48:03.391Z,14.0143
2023-05-06T01:49:03.746Z,13.9587
2023-05-06T01:50:04.103Z,13.9665
2023-05-06T01:51:04.433Z,13.9740
2023-05-06T01:52:04.829Z,13.9923
2023-05-06T01:53:05.214Z,13.9647
2023-05-06T01:54:05.652Z,13.9695
2023-05-06T01:55:06.213Z,13.9319
2023-05-06T01:56:06.603Z,13.9199
2023-05-06T01:57:06.976Z,13.8519
2023-05-06T01:58:07.365Z,13.8694
2023-05-06T01:59:07.726Z,13.9204
2023-05-06T02:00:08.111Z,13.9620
2023-05-06T02:01:08.741Z,13.9877
2023-05-06T02:02:09.389Z,14.0164
2023-05-06T02:03:09.856Z,14.0408
2023-05-06T02:04:10.188Z,14.0748
2023-05-06T02:05:10.740Z,14.0618
2023-05-06T02:06:11.607Z,14.0728
2023-05-06T02:07:11.973Z,14.0434
2023-05-06T02:08:12.527Z,14.0926
2023-05-06T02:09:12.884Z,14.1131
2023-05-06T02:10:13.218Z,14.1441
2023-05-06T02:11:13.558Z,14.1753
2023-05-06T02:12:13.876Z,14.1599
2023-05-06T02:13:14.329Z,14.1740
2023-05-06T02:14:14.784Z,14.1681
2023-05-06T02:15:15.082Z,14.1959
2023-05-06T02:16:15.467Z,14.1852
2023-05-06T02:17:15.775Z,14.1566
2023-05-06T02:18:16.146Z,14.0906
2023-05-06T02:19:17.182Z,14.0790
2023-05-06T02:20:17.522Z,14.1093
2023-05-06T02:21:17.960Z,14.1068
2023-05-06T02:22:18.325Z,14.0851
2023-05-06T02:23:18.691Z,14.0953
2023-05-06T02:24:19.083Z,14.1430
2023-05-06T02:25:19.445Z,14.1829
2023-05-06T02:26:19.802Z,14.1873
2023-05-06T02:27:20.126Z,14.2331
2023-05-06T02:28:20.493Z,14.2499
2023-05-06T02:29:20.892Z,14.2660
2023-05-06T02:30:21.292Z,14.2377
2023-05-06T02:31:21.995Z,14.1828
2023-05-06T02:32:22.439Z,14.1469
2023-05-06T02:33:22.880Z,14.1847
2023-05-06T02:34:23.275Z,14.1891
2023-05-06T02:35:23.640Z,14.1758
2023-05-06T02:36:24.059Z,14.1957
2023-05-06T02:37:24.403Z,14.2386
2023-05-06T02:38:24.780Z,14.2248
2023-05-06T02:39:25.176Z,14.1417
2023-05-06T02:40:25.873Z,14.1615
2023-05-06T02:41:26.363Z,14.1437
2023-05-06T02:42:26.713Z,14.1353
2023-05-06T02:43:27.152Z,14.0513
2023-05-06T02:44:27.495Z,14.0510
2023-05-06T02:45:27.942Z,14.0921
2023-05-06T02:46:28.285Z,14.1302
2023-05-06T02:47:28.707Z,14.1582
2023-05-06T02:48:29.108Z,14.1753
2023-05-06T02:49:29.513Z,14.1398
2023-05-06T02:50:29.919Z,14.1123
2023-05-06T02:51:30.301Z,14.1520
2023-05-06T02:52:30.685Z,14.1787
2023-05-06T02:53:30.999Z,14.1686
2023-05-06T02:54:31.374Z,14.1656
2023-05-06T02:55:31.784Z,14.1184
2023-05-06T02:56:32.159Z,14.0740
2023-05-06T02:57:32.477Z,14.0706
2023-05-06T02:58:32.877Z,14.0057
2023-05-06T02:59:33.190Z,13.9869
2023-05-06T03:00:33.655Z,13.9457
2023-05-06T03:01:34.061Z,13.9232
2023-05-06T03:02:34.492Z,13.9400
2023-05-06T03:03:34.883Z,13.9152
2023-05-06T03:04:35.403Z,13.9396
2023-05-06T03:05:36.080Z,13.9652
2023-05-06T03:06:36.471Z,13.9860
2023-05-06T03:07:37.012Z,13.9976
2023-05-06T03:08:37.401Z,14.0113
2023-05-06T03:09:37.787Z,14.0274
2023-05-06T03:10:38.173Z,14.0071
2023-05-06T03:11:38.557Z,13.9956
2023-05-06T03:12:38.986Z,13.9700
2023-05-06T03:13:39.310Z,13.9473
2023-05-06T03:14:39.827Z,13.9334
2023-05-06T03:15:40.189Z,13.8388
2023-05-06T03:16:40.570Z,13.8224
2023-05-06T03:17:40.896Z,13.8568
2023-05-06T03:18:41.212Z,13.8326
2023-05-06T03:19:41.575Z,13.8230
2023-05-06T03:20:41.929Z,13.8556
2023-05-06T03:21:42.335Z,13.8407
2023-05-06T03:22:42.664Z,13.8369
2023-05-06T03:23:43.040Z,13.8396
2023-05-06T03:24:43.397Z,13.8310
2023-05-06T03:25:43.823Z,13.8155
2023-05-06T03:26:44.140Z,13.8422
2023-05-06T03:27:44.460Z,13.8604
2023-05-06T03:28:44.780Z,13.8721
2023-05-06T03:29:45.199Z,13.8931
2023-05-06T03:30:45.661Z,13.8787
2023-05-06T03:31:46.041Z,13.8707
2023-05-06T03:32:46.429Z,13.8677
2023-05-06T03:33:46.741Z,13.8904
2023-05-06T03:34:47.130Z,13.8694
2023-05-06T03:35:47.548Z,13.8965
2023-05-06T03:36:47.880Z,13.8833
2023-05-06T03:37:48.272Z,13.8821
2023-05-06T03:38:48.665Z,13.8643
2023-05-06T03:39:48.996Z,13.8209
2023-05-06T03:40:49.435Z,13.7789
2023-05-06T03:41:49.801Z,13.7669
2023-05-06T03:42:50.152Z,13.6756
2023-05-06T03:43:50.522Z,13.5992
2023-05-06T03:44:50.895Z,13.5760
2023-05-06T03:45:51.468Z,13.5934
2023-05-06T03:46:51.847Z,13.5761
2023-05-06T03:47:52.268Z,13.5799
2023-05-06T03:48:52.617Z,13.5969
2023-05-06T03:49:52.997Z,13.6055
2023-05-06T03:50:53.383Z,13.5903
2023-05-06T03:51:53.696Z,13.5932
2023-05-06T03:52:54.015Z,13.5554
2023-05-06T03:53:54.927Z,13.5501
2023-05-06T03:54:55.557Z,13.5981
2023-05-06T03:55:55.902Z,13.5648
2023-05-06T03:56:56.311Z,13.6020
2023-05-06T03:57:56.622Z,13.5991
2023-05-06T03:58:56.965Z,13.6243
2023-05-06T03:59:57.308Z,13.6005
2023-05-06T04:00:57.651Z,13.6169
2023-05-06T04:01:58.082Z,13.5901
2023-05-06T04:02:58.517Z,13.5045
2023-05-06T04:03:58.940Z,13.5129
2023-05-06T04:04:59.312Z,13.4980
2023-05-06T04:05:59.741Z,13.5039
2023-05-06T04:07:00.108Z,13.5079
2023-05-06T04:08:00.486Z,13.5122
2023-05-06T04:09:00.878Z,13.5093
2023-05-06T04:10:01.252Z,13.4927
2023-05-06T04:11:01.625Z,13.5345
2023-05-06T04:12:01.977Z,13.5588
2023-05-06T04:13:02.377Z,13.5920
2023-05-06T04:14:02.742Z,13.5934
2023-05-06T04:15:03.136Z,13.5925
2023-05-06T04:16:03.616Z,13.6173
2023-05-06T04:17:03.999Z,13.6676
2023-05-06T04:18:04.381Z,13.6745
2023-05-06T04:19:06.512Z,13.7140
2023-05-06T04:20:07.283Z,13.7310
2023-05-06T04:21:07.730Z,13.7414
2023-05-06T04:22:08.252Z,13.7743
2023-05-06T04:23:08.586Z,13.7860
2023-05-06T04:24:08.965Z,13.8413
2023-05-06T04:25:09.708Z,13.8263
2023-05-06T04:26:10.496Z,13.8486
2023-05-06T04:27:10.838Z,13.8477
2023-05-06T04:28:11.224Z,13.8788
2023-05-06T04:29:11.567Z,13.8631
2023-05-06T04:30:11.908Z,13.8746
2023-05-06T04:31:12.305Z,13.8572
2023-05-06T04:32:12.692Z,13.8242
2023-05-06T04:33:13.091Z,13.8132
2023-05-06T04:34:13.467Z,13.7849
2023-05-06T04:35:13.822Z,13.8200
2023-05-06T04:36:14.237Z,13.8079
2023-05-06T04:37:14.596Z,13.7841
2023-05-06T04:38:14.976Z,13.7413
2023-05-06T04:39:15.338Z,13.7466
2023-05-06T04:40:15.697Z,13.7833
2023-05-06T04:41:16.089Z,13.8020
2023-05-06T04:42:16.528Z,13.8182
2023-05-06T04:43:16.902Z,13.8819
2023-05-06T04:44:17.315Z,13.8548
2023-05-06T04:45:17.637Z,13.8825
2023-05-06T04:46:18.046Z,13.9062
2023-05-06T04:47:18.514Z,13.8748
2023-05-06T04:48:18.905Z,13.8734
2023-05-06T04:49:19.359Z,13.9015
2023-05-06T04:50:19.769Z,13.8766
2023-05-06T04:51:20.119Z,13.9342
2023-05-06T04:52:20.499Z,13.9644
2023-05-06T04:53:20.957Z,14.0024
2023-05-06T04:54:21.366Z,13.9693
2023-05-06T04:55:21.737Z,13.9579
2023-05-06T04:56:22.084Z,13.9766
2023-05-06T04:57:22.425Z,13.9595
2023-05-06T04:58:22.758Z,13.9089
2023-05-06T04:59:23.177Z,13.8610
2023-05-06T05:00:23.586Z,13.8879
2023-05-06T05:01:24.047Z,13.9127
2023-05-06T05:02:24.522Z,13.9255
2023-05-06T05:03:25.013Z,13.9517
2023-05-06T05:04:25.468Z,13.9325
2023-05-06T05:05:25.890Z,13.9150
2023-05-06T05:06:26.219Z,13.8926
2023-05-06T05:07:26.589Z,13.9190
2023-05-06T05:08:26.963Z,13.9185
2023-05-06T05:09:27.313Z,13.9303
2023-05-06T05:10:27.688Z,13.8824
2023-05-06T05:11:28.093Z,13.9506
2023-05-06T05:12:28.494Z,13.9651
2023-05-06T05:13:28.809Z,13.9649
2023-05-06T05:14:29.198Z,13.9642
2023-05-06T05:15:29.614Z,13.9713
2023-05-06T05:16:30.021Z,14.0131
2023-05-06T05:17:30.454Z,14.0420
2023-05-06T05:18:30.856Z,14.0603
2023-05-06T05:19:31.198Z,14.0876
2023-05-06T05:20:31.686Z,14.0815
2023-05-06T05:21:32.195Z,14.1362
2023-05-06T05:22:32.583Z,14.1376
2023-05-06T05:23:32.907Z,14.1924
2023-05-06T05:24:33.289Z,14.2070
2023-05-06T05:25:33.692Z,14.2935
2023-05-06T05:26:34.040Z,14.4213
2023-05-06T05:27:34.439Z,14.5003
2023-05-06T05:28:34.820Z,14.5185
2023-05-06T05:29:35.128Z,14.5982
2023-05-06T05:30:35.449Z,14.6536
2023-05-06T05:31:35.803Z,14.6797
2023-05-06T05:32:36.247Z,14.6663
2023-05-06T05:33:36.761Z,14.5679
2023-05-06T05:34:37.163Z,14.5187
2023-05-06T05:35:37.469Z,14.4258
2023-05-06T05:36:37.820Z,14.5460
2023-05-06T05:37:38.174Z,14.5169
2023-05-06T05:38:38.555Z,14.4948
2023-05-06T05:39:38.990Z,14.3964
2023-05-06T05:40:39.312Z,14.3492
2023-05-06T05:41:39.628Z,14.3815
2023-05-06T05:42:39.987Z,14.3163
2023-05-06T05:43:40.311Z,14.3390
2023-05-06T05:44:40.956Z,14.4439
2023-05-06T05:45:41.297Z,14.4670
2023-05-06T05:46:41.674Z,14.4790
2023-05-06T05:47:42.137Z,14.4537
2023-05-06T05:48:42.441Z,14.3971
2023-05-06T05:49:42.838Z,14.4361
2023-05-06T05:50:43.167Z,14.4573
2023-05-06T05:51:43.648Z,14.5164
2023-05-06T05:52:43.973Z,14.6054
2023-05-06T05:53:44.320Z,14.6656
2023-05-06T05:54:44.661Z,14.7667
2023-05-06T05:55:44.987Z,14.8098
2023-05-06T05:56:45.363Z,14.7930
2023-05-06T05:57:45.722Z,14.7534
2023-05-06T05:58:46.138Z,14.7567
2023-05-06T05:59:46.654Z,14.7457
2023-05-06T06:00:47.043Z,14.7470
2023-05-06T06:01:47.356Z,14.5733
2023-05-06T06:02:47.789Z,14.4546
2023-05-06T06:03:48.423Z,14.4860
2023-05-06T06:04:49.095Z,14.4163
2023-05-06T06:05:49.528Z,14.4119
2023-05-06T06:06:49.889Z,14.4214
2023-05-06T06:07:50.205Z,14.4219
2023-05-06T06:08:50.589Z,14.5003
2023-05-06T06:09:50.943Z,14.6611
2023-05-06T06:10:51.271Z,14.7491
2023-05-06T06:11:51.632Z,14.7512
2023-05-06T06:12:52.088Z,14.8456
2023-05-06T06:13:52.713Z,14.9354
2023-05-06T06:14:53.050Z,15.0078
2023-05-06T06:15:53.414Z,14.9386
2023-05-06T06:16:53.805Z,14.9879
2023-05-06T06:17:54.261Z,14.9442
2023-05-06T06:18:54.748Z,14.9602
2023-05-06T06:19:55.113Z,14.9864
2023-05-06T06:20:55.441Z,15.0085
2023-05-06T06:21:55.795Z,15.0231
2023-05-06T06:22:56.123Z,15.1232
2023-05-06T06:23:56.471Z,15.1878
2023-05-06T06:24:56.860Z,15.0755
2023-05-06T06:25:57.181Z,14.9493
2023-05-06T06:26:57.520Z,14.9606
2023-05-06T06:27:57.862Z,14.9695
2023-05-06T06:28:58.287Z,15.0243
2023-05-06T06:29:58.631Z,15.0857
2023-05-06T06:30:59.033Z,15.1380
2023-05-06T06:31:59.476Z,15.1593
2023-05-06T06:32:59.890Z,15.2284
2023-05-06T06:34:00.272Z,15.2001
2023-05-06T06:35:00.630Z,15.2513
2023-05-06T06:36:00.996Z,15.2618
2023-05-06T06:37:01.301Z,15.1843
2023-05-06T06:38:01.677Z,15.1342
2023-05-06T06:39:01.997Z,15.0472
2023-05-06T06:40:02.356Z,15.0454
2023-05-06T06:41:02.673Z,15.0003
2023-05-06T06:42:02.990Z,15.0579
2023-05-06T06:43:03.305Z,15.1269
2023-05-06T06:44:03.704Z,15.1007
2023-05-06T06:45:04.094Z,15.1134
2023-05-06T06:46:04.475Z,15.1962
2023-05-06T06:47:04.839Z,15.2277
2023-05-06T06:48:05.213Z,15.2096
2023-05-06T06:49:05.596Z,15.3724
2023-05-06T06:50:05.973Z,15.3778
2023-05-06T06:51:06.433Z,15.3643
2023-05-06T06:52:06.812Z,15.4033
2023-05-06T06:53:07.207Z,15.5174
2023-05-06T06:54:07.576Z,15.5702
2023-05-06T06:55:08.198Z,15.6728
2023-05-06T06:56:08.746Z,15.6814
2023-05-06T06:57:09.170Z,15.6605
2023-05-06T06:58:09.568Z,15.6619
2023-05-06T06:59:10.034Z,15.7046
2023-05-06T07:00:10.467Z,15.6667
2023-05-06T07:01:10.885Z,15.7365
2023-05-06T07:02:11.280Z,15.7439
2023-05-06T07:03:11.677Z,15.6030
2023-05-06T07:04:12.102Z,15.4734
2023-05-06T07:05:12.746Z,15.4121
2023-05-06T07:06:13.354Z,15.4499
2023-05-06T07:07:13.759Z,15.5374
2023-05-06T07:08:14.127Z,15.5955
2023-05-06T07:09:14.554Z,15.7036
2023-05-06T07:10:14.907Z,15.8960
2023-05-06T07:11:15.289Z,15.8890
2023-05-06T07:12:15.773Z,15.8101
2023-05-06T07:13:16.257Z,15.8192
2023-05-06T07:14:16.656Z,15.8061
2023-05-06T07:15:17.043Z,15.8345
2023-05-06T07:16:17.445Z,15.6120
2023-05-06T07:17:17.810Z,15.5393
2023-05-06T07:18:18.238Z,15.6889
2023-05-06T07:19:18.646Z,15.7127
2023-05-06T07:20:19.017Z,15.6285
2023-05-06T07:21:19.427Z,15.5837
2023-05-06T07:22:19.776Z,15.6299
2023-05-06T07:23:20.217Z,15.6392
2023-05-06T07:24:20.581Z,15.6074
2023-05-06T07:25:21.022Z,15.7488
2023-05-06T07:26:21.365Z,15.9050
2023-05-06T07:27:21.886Z,15.7851
2023-05-06T07:28:22.328Z,15.8228
2023-05-06T07:29:22.692Z,16.0178
2023-05-06T07:30:23.495Z,15.9379
2023-05-06T07:31:24.086Z,16.1151
2023-05-06T07:32:24.501Z,16.3258
2023-05-06T07:33:24.902Z,16.3993
2023-05-06T07:34:25.338Z,16.5159
2023-05-06T07:35:25.738Z,16.4978
2023-05-06T07:36:26.157Z,16.3077
2023-05-06T07:37:26.580Z,16.0090
2023-05-06T07:38:26.995Z,15.9473
2023-05-06T07:39:27.366Z,15.9267
2023-05-06T07:40:27.768Z,16.0421
2023-05-06T07:41:28.147Z,15.9466
2023-05-06T07:42:28.566Z,15.7852
2023-05-06T07:43:28.996Z,15.7762
2023-05-06T07:44:29.451Z,15.7495
2023-05-06T07:45:29.853Z,15.7378
2023-05-06T07:46:31.283Z,15.7421
2023-05-06T07:47:31.794Z,15.8403
2023-05-06T07:48:32.301Z,15.9059
2023-05-06T07:49:32.701Z,15.9219
2023-05-06T07:50:33.020Z,15.8593
2023-05-06T07:51:33.333Z,15.9661
2023-05-06T07:52:33.665Z,15.9621
2023-05-06T07:53:34.045Z,16.0280
2023-05-06T07:54:34.460Z,16.1348
2023-05-06T07:55:35.267Z,16.1212
2023-05-06T07:56:35.951Z,16.1416
2023-05-06T07:57:36.319Z,16.1440
2023-05-06T07:58:36.711Z,16.1902
2023-05-06T07:59:37.067Z,16.3498
2023-05-06T08:00:37.426Z,16.4074
2023-05-06T08:01:37.740Z,16.4912
2023-05-06T08:02:38.164Z,16.6631
2023-05-06T08:03:38.755Z,16.5747
2023-05-06T08:04:39.205Z,16.5676
2023-05-06T08:05:39.611Z,16.4860
2023-05-06T08:06:39.980Z,16.5259
2023-05-06T08:07:40.346Z,16.5563
2023-05-06T08:08:40.653Z,16.5343
2023-05-06T08:09:41.047Z,16.6342
2023-05-06T08:10:41.440Z,16.6314
2023-05-06T08:11:41.831Z,16.6400
2023-05-06T08:12:42.198Z,16.7034
2023-05-06T08:13:42.589Z,16.7442
2023-05-06T08:14:42.968Z,16.7398
2023-05-06T08:15:43.331Z,16.7847
2023-05-06T08:16:43.732Z,16.9013
2023-05-06T08:17:44.103Z,16.9425
2023-05-06T08:18:44.395Z,17.0045
2023-05-06T08:19:44.702Z,17.1955
2023-05-06T08:20:45.072Z,17.3470
2023-05-06T08:21:45.349Z,17.3885
2023-05-06T08:22:45.693Z,17.4978
2023-05-06T08:23:45.993Z,17.5986
2023-05-06T08:24:46.378Z,17.6354
2023-05-06T08:25:46.727Z,17.5166
2023-05-06T08:26:47.126Z,17.4074
2023-05-06T08:27:47.420Z,17.5291
2023-05-06T08:28:47.834Z,17.7045
2023-05-06T08:29:48.099Z,17.7437
2023-05-06T08:30:48.498Z,17.7557
2023-05-06T08:31:48.959Z,17.6488
2023-05-06T08:32:49.409Z,17.8285
2023-05-06T08:33:49.691Z,17.9163
2023-05-06T08:34:50.013Z,18.0327
2023-05-06T08:35:50.341Z,18.1505
2023-05-06T08:36:50.730Z,18.2425
2023-05-06T08:37:51.018Z,18.4396
2023-05-06T08:38:51.380Z,18.5546
2023-05-06T08:39:51.666Z,18.4540
2023-05-06T08:40:52.017Z,18.2231
2023-05-06T08:41:52.368Z,18.0440
2023-05-06T08:42:52.697Z,18.2293
2023-05-06T08:43:53.045Z,18.1843
2023-05-06T08:44:53.377Z,18.1217
2023-05-06T08:45:53.842Z,18.2277
2023-05-06T08:46:54.216Z,18.4695
2023-05-06T08:47:54.511Z,18.6468
2023-05-06T08:48:54.795Z,18.5246
2023-05-06T08:49:55.062Z,18.2650
2023-05-06T08:50:55.404Z,18.4938
2023-05-06T08:51:55.707Z,18.3881
2023-05-06T08:52:56.009Z,18.2300
2023-05-06T08:53:56.416Z,18.3112
2023-05-06T08:54:56.777Z,18.2848
2023-05-06T08:55:57.121Z,18.2864
2023-05-06T08:56:57.465Z,18.1558
2023-05-06T08:57:57.801Z,18.1935
2023-05-06T08:58:58.154Z,18.2767
2023-05-06T08:59:58.497Z,18.4315
2023-05-06T09:00:58.945Z,18.2883
2023-05-06T09:01:59.313Z,18.1524
2023-05-06T09:02:59.733Z,18.3556
2023-05-06T09:04:00.133Z,18.2095
2023-05-06T09:05:00.546Z,18.2865
2023-05-06T09:06:00.937Z,18.4024
2023-05-06T09:07:01.302Z,18.5089
2023-05-06T09:08:01.661Z,18.6632
2023-05-06T09:09:02.048Z,18.7064
2023-05-06T09:10:02.419Z,18.6936
2023-05-06T09:11:02.800Z,18.8238
2023-05-06T09:12:03.253Z,18.5451
2023-05-06T09:13:03.612Z,18.4606
2023-05-06T09:14:04.007Z,18.3146
2023-05-06T09:15:04.348Z,18.3925
2023-05-06T09:16:04.749Z,18.7029
2023-05-06T09:17:05.183Z,18.9246
2023-05-06T09:18:05.628Z,19.2738
2023-05-06T09:19:06.034Z,18.8006
2023-05-06T09:20:06.405Z,18.6684
2023-05-06T09:21:06.708Z,18.9662
2023-05-06T09:22:07.032Z,18.9726
2023-05-06T09:23:07.363Z,18.9691
2023-05-06T09:24:07.678Z,19.0579
2023-05-06T09:25:08.299Z,19.3565
2023-05-06T09:26:08.793Z,19.3041
2023-05-06T09:27:10.618Z,19.0543
2023-05-06T09:28:11.605Z,19.0903
2023-05-06T09:29:11.957Z,19.1730
2023-05-06T09:30:12.513Z,19.0780
2023-05-06T09:31:12.944Z,18.7533
2023-05-06T09:32:13.259Z,18.6816
2023-05-06T09:33:13.657Z,18.9644
2023-05-06T09:34:13.986Z,19.0737
2023-05-06T09:35:14.482Z,18.9980
2023-05-06T09:36:15.169Z,19.0162
2023-05-06T09:37:15.492Z,19.0649
2023-05-06T09:38:15.895Z,19.0683
2023-05-06T09:39:16.247Z,18.8827
2023-05-06T09:40:16.685Z,18.8689
2023-05-06T09:41:17.073Z,18.7425
2023-05-06T09:42:17.462Z,18.8734
2023-05-06T09:43:17.812Z,19.2320
2023-05-06T09:44:18.129Z,19.3678
2023-05-06T09:45:19.521Z,19.3009
2023-05-06T09:46:19.908Z,19.0211
2023-05-06T09:47:20.247Z,18.9263
2023-05-06T09:48:20.619Z,19.0065
2023-05-06T09:49:20.960Z,19.0405
2023-05-06T09:50:21.287Z,19.3177
2023-05-06T09:51:21.585Z,19.3041
2023-05-06T09:52:21.977Z,19.3015
2023-05-06T09:53:22.343Z,19.0514
2023-05-06T09:54:22.667Z,19.3425
2023-05-06T09:55:23.116Z,19.4884
2023-05-06T09:56:23.427Z,19.8061
2023-05-06T09:57:23.814Z,19.9444
2023-05-06T09:58:24.150Z,19.7879
2023-05-06T09:59:24.480Z,19.4437
2023-05-06T10:00:24.788Z,19.3922
2023-05-06T10:01:36.166Z,19.3696
2023-05-06T10:02:25.881Z,19.2275
2023-05-06T10:03:26.300Z,19.4898
2023-05-06T10:04:26.922Z,19.3977
2023-05-06T10:05:27.574Z,19.4695
2023-05-06T10:06:27.915Z,19.3750
2023-05-06T10:07:28.271Z,19.4169
2023-05-06T10:08:28.597Z,19.7634
2023-05-06T10:09:28.924Z,19.5978
2023-05-06T10:10:29.267Z,19.9968
2023-05-06T10:11:29.618Z,20.2313
2023-05-06T10:12:29.976Z,20.3862
2023-05-06T10:13:30.329Z,19.6614
2023-05-06T10:14:30.620Z,19.4837
2023-05-06T10:15:30.997Z,19.6714
2023-05-06T10:16:31.381Z,19.9012
2023-05-06T10:17:31.839Z,19.4853
2023-05-06T10:18:32.162Z,19.4911
2023-05-06T10:19:32.513Z,19.3815
2023-05-06T10:20:32.890Z,19.6363
2023-05-06T10:21:33.244Z,19.5487
2023-05-06T10:22:33.649Z,19.7991
2023-05-06T10:23:33.951Z,20.1320
2023-05-06T10:24:34.247Z,20.2823
2023-05-06T10:25:34.642Z,20.2960
2023-05-06T10:26:35.069Z,20.5136
2023-05-06T10:27:35.386Z,20.4309
2023-05-06T10:28:35.769Z,20.3194
2023-05-06T10:29:36.213Z,20.7224
2023-05-06T10:30:36.606Z,20.3225
2023-05-06T10:31:37.075Z,20.3249
2023-05-06T10:32:37.414Z,20.3299
2023-05-06T10:33:38.015Z,20.6160
2023-05-06T10:34:39.117Z,20.8279
2023-05-06T10:35:39.434Z,21.0995
2023-05-06T10:36:39.733Z,21.3783
2023-05-06T10:37:40.079Z,21.6678
2023-05-06T10:38:40.403Z,21.8200
2023-05-06T10:39:42.097Z,21.6110
2023-05-06T10:40:42.653Z,21.1607
2023-05-06T10:41:42.996Z,21.6308
2023-05-06T10:42:43.320Z,21.2918
2023-05-06T10:43:43.629Z,20.9185
2023-05-06T10:44:45.051Z,20.7762
2023-05-06T10:45:43.873Z,20.6486
2023-05-06T10:46:44.213Z,20.5213
2023-05-06T10:47:44.578Z,20.7056
2023-05-06T10:48:44.880Z,20.6335
2023-05-06T10:49:45.189Z,20.5254
2023-05-06T10:50:46.833Z,20.8891
2023-05-06T10:51:47.292Z,21.1969
2023-05-06T10:52:47.610Z,20.8386
2023-05-06T10:53:47.922Z,21.0787
2023-05-06T10:54:48.244Z,21.3732
2023-05-06T10:55:48.568Z,21.3010
2023-05-06T10:56:48.856Z,21.3841
2023-05-06T10:57:49.199Z,21.3736
2023-05-06T10:58:49.488Z,21.5601
2023-05-06T10:59:49.843Z,21.6106
2023-05-06T11:00:50.118Z,21.6143
2023-05-06T11:01:50.399Z,21.9449
2023-05-06T11:02:50.766Z,21.5265
2023-05-06T11:03:51.026Z,21.5296
2023-05-06T11:04:51.345Z,21.5396
2023-05-06T11:05:51.674Z,21.6032
2023-05-06T11:06:52.011Z,21.3508
2023-05-06T11:07:52.360Z,21.4783
2023-05-06T11:08:52.642Z,21.6244
2023-05-06T11:09:52.982Z,22.4203
2023-05-06T11:10:53.276Z,22.1754
2023-05-06T11:11:53.530Z,22.4633
2023-05-06T11:12:53.957Z,22.2721
2023-05-06T11:13:54.302Z,21.5049
2023-05-06T11:14:54.549Z,21.8353
2023-05-06T11:15:54.839Z,21.8193
2023-05-06T11:16:55.179Z,22.3187
2023-05-06T11:17:55.573Z,23.1936
2023-05-06T11:18:56.046Z,22.8213
2023-05-06T11:19:56.333Z,23.1427
2023-05-06T11:20:56.613Z,23.5367
2023-05-06T11:21:56.870Z,23.0968
2023-05-06T11:22:57.160Z,21.9457
2023-05-06T11:23:57.460Z,21.5970
2023-05-06T11:24:57.686Z,21.5351
2023-05-06T11:25:57.920Z,21.9271
2023-05-06T11:26:58.188Z,21.6350
2023-05-06T11:27:58.449Z,21.3706
2023-05-06T11:28:58.774Z,21.2165
2023-05-06T11:29:58.995Z,21.4160
2023-05-06T11:30:59.296Z,21.1210
2023-05-06T11:31:59.584Z,20.8755
2023-05-06T11:32:59.917Z,21.0071
2023-05-06T11:34:00.223Z,20.8691
2023-05-06T11:35:00.524Z,20.7440
2023-05-06T11:36:00.772Z,20.8835
2023-05-06T11:37:01.003Z,20.8461
2023-05-06T11:38:01.308Z,21.1425
2023-05-06T11:39:03.522Z,21.5403
2023-05-06T11:40:02.648Z,21.8921
2023-05-06T11:41:02.998Z,22.0401
2023-05-06T11:42:03.247Z,22.0787
2023-05-06T11:43:03.540Z,22.3883
2023-05-06T11:44:03.783Z,21.8386
2023-05-06T11:45:04.139Z,21.8716
2023-05-06T11:46:04.476Z,21.8490
2023-05-06T11:47:04.793Z,21.6489
2023-05-06T11:48:05.184Z,21.5281
2023-05-06T11:49:05.464Z,21.8266
2023-05-06T11:50:05.769Z,21.9337
2023-05-06T11:51:06.147Z,21.6356
2023-05-06T11:52:06.444Z,21.4244
2023-05-06T11:53:06.779Z,21.9076
2023-05-06T11:54:07.160Z,22.1237
2023-05-06T11:55:07.418Z,22.0380
2023-05-06T11:56:07.722Z,22.1539
2023-05-06T11:57:08.052Z,22.2644
2023-05-06T11:58:08.464Z,22.1200
2023-05-06T11:59:08.786Z,22.0617
2023-05-06T12:00:09.279Z,21.6957
2023-05-06T12:01:09.714Z,21.7678
2023-05-06T12:02:10.041Z,21.8709
2023-05-06T12:03:10.453Z,21.5803
2023-05-06T12:04:10.932Z,21.4061
2023-05-06T12:05:11.290Z,21.4847
2023-05-06T12:06:11.573Z,21.5730
2023-05-06T12:07:11.922Z,21.6313
2023-05-06T12:08:23.551Z,22.2441
2023-05-06T12:09:12.714Z,22.2068
2023-05-06T12:10:13.206Z,22.2976